createdAt,value
2018-03-04T00:02:05.918Z,0.10
2018-03-04T00:04:33.416Z,0.10
2018-03-04T00:07:00.936Z,0.10
2018-03-04T00:09:28.435Z,0.20
2018-03-04T00:11:55.954Z,0.20
2018-03-04T00:14:23.446Z,0.20
2018-03-04T00:16:50.944Z,0.30
2018-03-04T00:19:19.247Z,0.20
2018-03-04T00:21:46.792Z,0.20
2018-03-04T00:24:14.294Z,0.20
2018-03-04T00:26:41.803Z,0.20
2018-03-04T00:29:09.287Z,0.20
2018-03-04T00:31:36.812Z,0.10
2018-03-04T00:34:05.106Z,0.00
2018-03-04T00:36:32.632Z,0.00
2018-03-04T00:39:00.135Z,0.00
2018-03-04T00:41:27.631Z,0.00
2018-03-04T00:43:55.134Z,-0.10
2018-03-04T00:46:23.380Z,0.10
2018-03-04T00:48:50.894Z,0.00
2018-03-04T00:51:18.383Z,0.10
2018-03-04T00:53:45.908Z,0.10
2018-03-04T00:56:13.413Z,0.10
2018-03-04T00:58:40.917Z,0.10
2018-03-04T01:01:08.413Z,0.10
2018-03-04T01:03:35.916Z,0.10
2018-03-04T01:06:03.409Z,0.10
2018-03-04T01:08:30.917Z,0.10
2018-03-04T01:10:58.425Z,0.00
2018-03-04T01:13:25.922Z,0.10
2018-03-04T01:15:53.416Z,0.20
2018-03-04T01:18:20.898Z,0.20
2018-03-04T01:20:48.398Z,0.20
2018-03-04T01:23:15.889Z,0.20
2018-03-04T01:25:43.408Z,0.10
2018-03-04T01:28:10.902Z,0.20
2018-03-04T01:30:38.470Z,0.20
2018-03-04T01:33:05.991Z,0.20
2018-03-04T01:35:33.497Z,0.10
2018-03-04T01:38:01.019Z,0.10
2018-03-04T01:40:28.516Z,0.30
2018-03-04T01:42:56.028Z,0.30
2018-03-04T01:45:24.315Z,0.20
2018-03-04T01:47:53.429Z,0.10
2018-03-04T01:50:21.001Z,0.10
2018-03-04T01:52:48.540Z,0.10
2018-03-04T01:55:16.058Z,0.20
2018-03-04T01:57:43.568Z,0.00
2018-03-04T02:00:11.064Z,0.10
2018-03-04T02:02:38.580Z,0.20
2018-03-04T02:05:06.069Z,0.20
2018-03-04T02:07:33.564Z,0.10
2018-03-04T02:10:01.826Z,0.20
2018-03-04T02:12:29.320Z,0.20
2018-03-04T02:14:56.837Z,0.20
2018-03-04T02:17:24.337Z,0.20
2018-03-04T02:19:51.837Z,0.10
2018-03-04T02:22:19.340Z,0.30
2018-03-04T02:24:47.587Z,0.40
2018-03-04T02:27:15.261Z,0.40
2018-03-04T02:29:43.574Z,0.40
2018-03-04T02:32:11.072Z,0.40
2018-03-04T02:34:38.593Z,0.50
2018-03-04T02:37:06.083Z,0.60
2018-03-04T02:39:33.655Z,0.40
2018-03-04T02:42:01.197Z,0.30
2018-03-04T02:44:28.673Z,0.00
2018-03-04T02:46:56.266Z,0.00
2018-03-04T02:49:23.752Z,-0.10
2018-03-04T02:51:51.264Z,-0.10
2018-03-04T02:54:18.756Z,-0.10
2018-03-04T02:56:46.267Z,-0.20
2018-03-04T02:59:13.799Z,-0.10
2018-03-04T03:01:41.293Z,0.00
2018-03-04T03:04:09.026Z,0.00
2018-03-04T03:06:36.516Z,0.20
2018-03-04T03:09:04.003Z,0.20
2018-03-04T03:11:32.296Z,0.30
2018-03-04T03:13:59.792Z,0.30
2018-03-04T03:16:27.312Z,0.40
2018-03-04T03:18:54.811Z,0.40
2018-03-04T03:21:22.295Z,0.50
2018-03-04T03:23:50.585Z,0.50
2018-03-04T03:26:18.075Z,0.50
2018-03-04T03:28:45.588Z,0.60
2018-03-04T03:31:13.863Z,0.60
2018-03-04T03:33:41.366Z,0.50
2018-03-04T03:36:08.868Z,0.70
2018-03-04T03:38:37.126Z,0.80
2018-03-04T03:41:04.651Z,0.70
2018-03-04T03:43:32.149Z,0.80
2018-03-04T03:45:59.632Z,0.80
2018-03-04T03:48:27.443Z,0.70
2018-03-04T03:50:54.938Z,0.80
2018-03-04T03:53:22.452Z,0.80
2018-03-04T03:55:50.221Z,0.60
2018-03-04T03:58:17.715Z,0.70
2018-03-04T04:00:45.259Z,0.70
2018-03-04T04:03:12.751Z,0.50
2018-03-04T04:05:41.029Z,0.60
2018-03-04T04:08:08.523Z,0.60
2018-03-04T04:10:36.033Z,0.70
2018-03-04T04:13:04.313Z,0.80
2018-03-04T04:15:32.564Z,0.70
2018-03-04T04:18:00.079Z,0.70
2018-03-04T04:20:27.567Z,0.60
2018-03-04T04:22:55.082Z,0.70
2018-03-04T04:25:22.612Z,0.70
2018-03-04T04:27:50.115Z,0.70
2018-03-04T04:30:17.624Z,0.70
2018-03-04T04:32:45.125Z,0.70
2018-03-04T04:35:13.328Z,0.70
2018-03-04T04:37:40.944Z,0.80
2018-03-04T04:40:08.750Z,0.80
2018-03-04T04:42:37.123Z,0.90
2018-03-04T04:45:04.619Z,0.80
2018-03-04T04:47:32.103Z,0.80
2018-03-04T04:49:59.600Z,0.70
2018-03-04T04:52:27.084Z,0.90
2018-03-04T04:54:54.603Z,0.80
2018-03-04T04:57:22.100Z,0.70
2018-03-04T04:59:49.584Z,0.80
2018-03-04T05:02:17.944Z,0.70
2018-03-04T05:04:45.444Z,0.60
2018-03-04T05:07:12.953Z,0.80
2018-03-04T05:09:40.447Z,0.80
2018-03-04T05:12:08.036Z,0.80
2018-03-04T05:14:35.548Z,0.90
2018-03-04T05:17:03.024Z,0.90
2018-03-04T05:19:30.569Z,0.90
2018-03-04T05:21:58.067Z,0.90
2018-03-04T05:24:25.572Z,0.80
2018-03-04T05:26:53.073Z,0.90
2018-03-04T05:29:20.561Z,1.00
2018-03-04T05:31:48.056Z,1.00
2018-03-04T05:34:16.302Z,1.00
2018-03-04T05:36:43.805Z,1.10
2018-03-04T05:39:11.292Z,1.00
2018-03-04T05:41:38.769Z,1.00
2018-03-04T05:44:06.263Z,1.10
2018-03-04T05:46:33.757Z,1.00
2018-03-04T05:49:01.269Z,0.80
2018-03-04T05:51:29.540Z,0.90
2018-03-04T05:53:57.043Z,0.80
2018-03-04T05:56:24.543Z,0.80
2018-03-04T05:58:52.043Z,0.80
2018-03-04T06:01:19.527Z,0.70
2018-03-04T06:03:47.038Z,0.70
2018-03-04T06:06:14.539Z,0.70
2018-03-04T06:08:43.047Z,0.60
2018-03-04T06:11:12.248Z,0.60
2018-03-04T06:13:39.726Z,0.50
2018-03-04T06:16:07.252Z,0.50
2018-03-04T06:18:34.773Z,0.60
2018-03-04T06:21:02.261Z,0.60
2018-03-04T06:23:29.751Z,0.70
2018-03-04T06:25:57.253Z,0.60
2018-03-04T06:28:24.771Z,0.70
2018-03-04T06:30:52.251Z,0.80
2018-03-04T06:33:19.741Z,0.80
2018-03-04T06:35:47.248Z,0.80
2018-03-04T06:38:15.703Z,0.90
2018-03-04T06:40:43.235Z,0.90
2018-03-04T06:43:10.719Z,1.00
2018-03-04T06:45:38.210Z,1.10
2018-03-04T06:48:06.477Z,1.30
2018-03-04T06:50:34.768Z,1.40
2018-03-04T06:53:03.026Z,1.30
2018-03-04T06:55:31.277Z,1.20
2018-03-04T06:57:58.771Z,1.20
2018-03-04T07:00:26.314Z,1.10
2018-03-04T07:02:54.595Z,1.10
2018-03-04T07:05:22.860Z,1.30
2018-03-04T07:07:50.357Z,1.10
2018-03-04T07:10:18.158Z,1.20
2018-03-04T07:12:46.238Z,1.30
2018-03-04T07:15:13.816Z,1.40
2018-03-04T07:17:41.380Z,1.40
2018-03-04T07:20:08.876Z,1.30
2018-03-04T07:22:36.405Z,1.40
2018-03-04T07:25:04.647Z,1.50
2018-03-04T07:27:32.909Z,1.60
2018-03-04T07:30:00.412Z,1.50
2018-03-04T07:32:28.686Z,1.70
2018-03-04T07:34:56.960Z,1.90
2018-03-04T07:37:25.215Z,1.90
2018-03-04T07:39:52.702Z,2.00
2018-03-04T07:42:20.241Z,2.10
2018-03-04T07:44:47.769Z,2.10
2018-03-04T07:47:15.249Z,1.90
2018-03-04T07:49:42.862Z,1.90
2018-03-04T07:52:10.384Z,1.70
2018-03-04T07:54:37.868Z,1.70
2018-03-04T07:57:05.372Z,1.80
2018-03-04T07:59:32.905Z,2.10
2018-03-04T08:02:01.106Z,2.30
2018-03-04T08:04:29.181Z,2.30
2018-03-04T08:06:56.675Z,2.40
2018-03-04T08:09:24.941Z,2.60
2018-03-04T08:11:52.446Z,2.60
2018-03-04T08:14:19.942Z,2.60
2018-03-04T08:16:47.452Z,2.60
2018-03-04T08:19:14.959Z,2.50
2018-03-04T08:21:42.481Z,2.40
2018-03-04T08:24:10.032Z,2.50
2018-03-04T08:26:49.279Z,2.60
2018-03-04T08:29:16.775Z,2.90
2018-03-04T08:31:44.259Z,2.90
2018-03-04T08:34:11.772Z,2.90
2018-03-04T08:36:39.246Z,2.90
2018-03-04T08:39:06.753Z,3.10
2018-03-04T08:41:34.265Z,3.20
2018-03-04T08:44:01.788Z,3.20
2018-03-04T08:46:29.303Z,3.40
2018-03-04T08:48:57.545Z,3.40
2018-03-04T08:51:25.041Z,3.30
2018-03-04T08:53:52.580Z,3.30
2018-03-04T08:56:20.844Z,2.90
2018-03-04T08:58:48.391Z,2.90
2018-03-04T09:01:15.880Z,3.00
2018-03-04T09:03:43.392Z,3.20
2018-03-04T09:06:10.895Z,3.30
2018-03-04T09:08:38.411Z,3.50
2018-03-04T09:11:05.908Z,3.60
2018-03-04T09:13:34.175Z,3.90
2018-03-04T09:16:01.681Z,3.80
2018-03-04T09:18:29.187Z,3.80
2018-03-04T09:20:56.688Z,4.00
2018-03-04T09:23:24.200Z,4.50
2018-03-04T09:25:51.729Z,4.70
2018-03-04T09:28:19.237Z,4.90
2018-03-04T09:30:46.808Z,5.20
2018-03-04T09:33:14.340Z,5.40
2018-03-04T09:35:42.602Z,5.20
2018-03-04T09:38:10.114Z,5.10
2018-03-04T09:40:37.700Z,5.00
2018-03-04T09:43:05.210Z,5.00
2018-03-04T09:45:32.766Z,5.10
2018-03-04T09:48:00.271Z,4.80
2018-03-04T09:50:27.748Z,4.90
2018-03-04T09:52:55.270Z,4.80
2018-03-04T09:55:22.988Z,4.70
2018-03-04T09:57:51.335Z,4.90
2018-03-04T10:00:18.838Z,4.90
2018-03-04T10:02:46.318Z,5.30
2018-03-04T10:05:13.843Z,5.50
2018-03-04T10:07:41.337Z,5.70
2018-03-04T10:10:08.834Z,5.90
2018-03-04T10:12:36.334Z,6.20
2018-03-04T10:15:04.633Z,6.40
2018-03-04T10:17:32.120Z,6.40
2018-03-04T10:19:59.633Z,6.60
2018-03-04T10:22:27.139Z,6.90
2018-03-04T10:24:54.864Z,7.20
2018-03-04T10:27:22.357Z,7.20
2018-03-04T10:29:49.868Z,7.20
2018-03-04T10:32:17.413Z,7.40
2018-03-04T10:34:45.721Z,7.70
2018-03-04T10:37:15.142Z,7.70
2018-03-04T10:39:42.676Z,8.00
2018-03-04T10:42:10.168Z,7.60
2018-03-04T10:44:37.656Z,7.40
2018-03-04T10:47:05.184Z,7.60
2018-03-04T10:49:32.722Z,7.30
2018-03-04T10:52:00.298Z,7.20
2018-03-04T10:54:27.998Z,6.90
2018-03-04T10:56:56.255Z,6.90
2018-03-04T10:59:23.744Z,6.90
2018-03-04T11:01:52.047Z,7.50
2018-03-04T11:04:19.541Z,7.50
2018-03-04T11:06:47.768Z,7.60
2018-03-04T11:09:15.268Z,7.60
2018-03-04T11:11:42.783Z,7.70
2018-03-04T11:14:10.261Z,8.00
2018-03-04T11:16:37.770Z,8.00
2018-03-04T11:19:05.288Z,8.00
2018-03-04T11:21:32.860Z,8.10
2018-03-04T11:24:00.375Z,8.30
2018-03-04T11:26:27.858Z,8.70
2018-03-04T11:28:55.371Z,8.80
2018-03-04T11:31:23.662Z,9.40
2018-03-04T11:33:51.187Z,9.50
2018-03-04T11:36:18.690Z,9.70
2018-03-04T11:38:46.624Z,9.40
2018-03-04T11:41:14.899Z,9.50
2018-03-04T11:43:43.186Z,9.60
2018-03-04T11:46:10.693Z,9.60
2018-03-04T11:48:38.183Z,9.80
2018-03-04T11:51:05.667Z,9.70
2018-03-04T11:53:33.164Z,10.00
2018-03-04T11:56:00.708Z,10.10
2018-03-04T11:58:28.182Z,10.30
2018-03-04T12:00:55.712Z,10.40
2018-03-04T12:03:23.202Z,10.60
2018-03-04T12:05:50.707Z,10.70
2018-03-04T12:08:18.987Z,11.30
2018-03-04T12:10:47.226Z,11.30
2018-03-04T12:13:14.726Z,11.30
2018-03-04T12:15:42.972Z,10.60
2018-03-04T12:18:10.476Z,10.60
2018-03-04T12:20:38.771Z,10.30
2018-03-04T12:23:06.288Z,10.30
2018-03-04T12:25:34.555Z,10.90
2018-03-04T12:28:02.057Z,10.80
2018-03-04T12:30:29.560Z,11.00
2018-03-04T12:32:57.836Z,11.40
2018-03-04T12:35:25.335Z,11.30
2018-03-04T12:37:52.850Z,11.10
2018-03-04T12:40:20.414Z,11.00
2018-03-04T12:42:48.698Z,10.70
2018-03-04T12:45:16.975Z,11.00
2018-03-04T12:47:45.243Z,11.10
2018-03-04T12:50:12.778Z,11.10
2018-03-04T12:52:40.272Z,11.20
2018-03-04T12:55:07.795Z,11.10
2018-03-04T12:57:35.278Z,11.00
2018-03-04T13:00:03.540Z,11.40
2018-03-04T13:02:31.075Z,11.40
2018-03-04T13:04:58.581Z,11.30
2018-03-04T13:07:26.896Z,10.70
2018-03-04T13:09:54.416Z,10.60
2018-03-04T13:12:22.667Z,10.30
2018-03-04T13:14:50.183Z,10.30
2018-03-04T13:17:17.711Z,9.90
2018-03-04T13:19:45.208Z,10.10
2018-03-04T13:22:12.695Z,10.30
2018-03-04T13:24:40.969Z,10.20
2018-03-04T13:27:08.450Z,10.20
2018-03-04T13:29:36.721Z,9.30
2018-03-04T13:32:05.019Z,9.10
2018-03-04T13:34:33.275Z,9.30
2018-03-04T13:37:00.798Z,9.20
2018-03-04T13:39:28.317Z,9.10
2018-03-04T13:41:55.825Z,9.10
2018-03-04T13:44:23.307Z,9.50
2018-03-04T13:46:51.572Z,9.60
2018-03-04T13:49:19.065Z,9.60
2018-03-04T13:51:46.540Z,9.80
2018-03-04T13:54:14.043Z,10.00
2018-03-04T13:56:41.539Z,10.10
2018-03-04T13:59:09.030Z,10.30
2018-03-04T14:01:37.361Z,10.40
2018-03-04T14:04:05.633Z,10.80
2018-03-04T14:06:33.906Z,10.90
2018-03-04T14:09:01.416Z,10.70
2018-03-04T14:11:28.976Z,10.80
2018-03-04T14:13:56.476Z,11.00
2018-03-04T14:16:24.007Z,11.20
2018-03-04T14:18:51.551Z,11.20
2018-03-04T14:21:19.059Z,11.10
2018-03-04T14:23:46.568Z,10.40
2018-03-04T14:26:14.058Z,10.00
2018-03-04T14:28:41.571Z,9.60
2018-03-04T14:31:09.094Z,9.20
2018-03-04T14:33:36.608Z,9.10
2018-03-04T14:36:04.100Z,9.10
2018-03-04T14:38:32.432Z,9.00
2018-03-04T14:40:59.911Z,9.00
2018-03-04T14:43:27.418Z,9.10
2018-03-04T14:45:54.891Z,9.10
2018-03-04T14:48:22.385Z,9.10
2018-03-04T14:50:49.870Z,8.60
2018-03-04T14:53:18.131Z,8.70
2018-03-04T14:55:45.640Z,8.60
2018-03-04T14:58:13.155Z,8.60
2018-03-04T15:00:40.659Z,8.60
2018-03-04T15:03:08.146Z,8.50
2018-03-04T15:05:35.649Z,8.20
2018-03-04T15:08:03.138Z,8.20
2018-03-04T15:10:30.699Z,8.00
2018-03-04T15:12:58.679Z,7.80
2018-03-04T15:15:26.260Z,7.70
2018-03-04T15:17:54.603Z,7.30
2018-03-04T15:20:22.304Z,7.30
2018-03-04T15:22:49.824Z,7.20
2018-03-04T15:25:17.350Z,7.20
2018-03-04T15:27:44.840Z,7.10
2018-03-04T15:30:12.359Z,7.10
2018-03-04T15:32:40.610Z,7.00
2018-03-04T15:35:08.097Z,7.00
2018-03-04T15:37:36.477Z,7.00
2018-03-04T15:40:03.958Z,7.00
2018-03-04T15:42:31.509Z,7.10
2018-03-04T15:44:59.012Z,7.20
2018-03-04T15:47:26.483Z,7.00
2018-03-04T15:49:54.066Z,6.80
2018-03-04T15:52:21.531Z,6.80
2018-03-04T15:54:49.044Z,6.80
2018-03-04T15:57:16.546Z,6.90
2018-03-04T15:59:44.097Z,6.90
2018-03-04T16:02:11.659Z,7.00
2018-03-04T16:04:39.151Z,7.10
2018-03-04T16:07:06.699Z,7.10
2018-03-04T16:09:34.176Z,7.10
2018-03-04T16:12:01.671Z,7.00
2018-03-04T16:14:29.973Z,7.10
2018-03-04T16:16:58.248Z,7.10
2018-03-04T16:19:25.763Z,7.10
2018-03-04T16:21:53.282Z,7.10
2018-03-04T16:24:21.217Z,7.10
2018-03-04T16:26:49.491Z,7.10
2018-03-04T16:29:17.744Z,7.10
2018-03-04T16:31:45.237Z,7.10
2018-03-04T16:34:12.784Z,7.10
2018-03-04T16:36:41.033Z,7.00
2018-03-04T16:39:08.543Z,6.90
2018-03-04T16:41:36.045Z,6.90
2018-03-04T16:44:05.085Z,7.00
2018-03-04T16:46:32.594Z,7.00
2018-03-04T16:49:00.100Z,7.10
2018-03-04T16:51:27.613Z,7.10
2018-03-04T16:53:58.453Z,7.00
2018-03-04T16:56:25.975Z,7.10
2018-03-04T16:58:53.529Z,7.10
2018-03-04T17:01:21.042Z,7.10
2018-03-04T17:03:49.335Z,7.00
2018-03-04T17:06:17.604Z,7.00
2018-03-04T17:08:45.909Z,7.00
2018-03-04T17:11:13.418Z,6.90
2018-03-04T17:13:40.912Z,6.90
2018-03-04T17:16:08.417Z,6.90
2018-03-04T17:18:35.931Z,6.90
2018-03-04T17:21:03.414Z,6.90
2018-03-04T17:23:30.927Z,6.90
2018-03-04T17:25:58.433Z,6.90
2018-03-04T17:28:25.933Z,6.90
2018-03-04T17:30:53.462Z,6.90
2018-03-04T17:33:20.962Z,6.90
2018-03-04T17:35:49.238Z,6.90
2018-03-04T17:38:16.759Z,6.90
2018-03-04T17:40:44.264Z,6.90
2018-03-04T17:43:11.822Z,6.90
2018-03-04T17:45:39.319Z,6.80
2018-03-04T17:48:06.821Z,6.90
2018-03-04T17:50:35.133Z,7.00
2018-03-04T17:53:02.659Z,7.00
2018-03-04T17:55:30.938Z,6.90
2018-03-04T17:57:59.195Z,6.90
2018-03-04T18:00:26.817Z,6.90
2018-03-04T18:02:54.352Z,6.90
2018-03-04T18:05:21.845Z,6.80
2018-03-04T18:07:49.709Z,6.80
2018-03-04T18:10:17.212Z,6.80
2018-03-04T18:12:44.744Z,6.70
2018-03-04T18:15:12.297Z,6.60
2018-03-04T18:17:39.782Z,6.60
2018-03-04T18:20:07.279Z,6.60
2018-03-04T18:22:34.766Z,6.60
2018-03-04T18:25:02.295Z,6.60
2018-03-04T18:27:38.230Z,6.50
2018-03-04T18:30:05.771Z,6.50
2018-03-04T18:32:34.035Z,6.40
2018-03-04T18:35:01.523Z,6.40
2018-03-04T18:37:29.827Z,6.40
2018-03-04T18:39:57.306Z,6.30
2018-03-04T18:42:24.815Z,6.40
2018-03-04T18:44:52.363Z,6.30
2018-03-04T18:47:20.644Z,6.10
2018-03-04T18:49:48.934Z,6.20
2018-03-04T18:52:17.203Z,6.30
2018-03-04T18:54:45.482Z,6.20
2018-03-04T18:57:12.960Z,6.10
2018-03-04T18:59:40.476Z,6.20
2018-03-04T19:02:07.997Z,6.10
2018-03-04T19:04:35.488Z,6.10
2018-03-04T19:07:03.013Z,6.20
2018-03-04T19:09:30.517Z,6.20
2018-03-04T19:11:58.089Z,6.10
2018-03-04T19:14:25.597Z,6.10
2018-03-04T19:16:53.154Z,6.10
2018-03-04T19:19:20.665Z,6.30
2018-03-04T19:21:48.316Z,6.30
2018-03-04T19:24:16.597Z,6.70
2018-03-04T19:26:44.091Z,6.70
2018-03-04T19:29:11.591Z,6.70
2018-03-04T19:31:39.087Z,6.70
2018-03-04T19:34:06.594Z,6.80
2018-03-04T19:36:34.137Z,6.90
2018-03-04T19:39:01.692Z,6.70
2018-03-04T19:41:29.186Z,6.60
2018-03-04T19:43:56.727Z,6.60
2018-03-04T19:46:24.249Z,6.60
2018-03-04T19:48:51.729Z,6.50
2018-03-04T19:51:19.232Z,6.50
2018-03-04T19:53:46.732Z,6.50
2018-03-04T19:56:14.277Z,6.40
2018-03-04T19:58:41.796Z,6.30
2018-03-04T20:01:10.109Z,6.20
2018-03-04T20:03:37.615Z,6.20
2018-03-04T20:06:05.101Z,6.30
2018-03-04T20:08:32.634Z,6.20
2018-03-04T20:11:00.128Z,6.10
2018-03-04T20:13:27.681Z,6.20
2018-03-04T20:15:55.192Z,6.10
2018-03-04T20:18:22.711Z,6.10
2018-03-04T20:20:50.252Z,6.00
2018-03-04T20:23:17.760Z,6.00
2018-03-04T20:25:45.308Z,6.10
2018-03-04T20:28:12.815Z,5.80
2018-03-04T20:30:40.327Z,5.80
2018-03-04T20:33:07.875Z,5.70
2018-03-04T20:35:36.927Z,5.60
2018-03-04T20:38:05.191Z,5.60
2018-03-04T20:40:32.719Z,5.70
2018-03-04T20:43:00.227Z,5.50
2018-03-04T20:45:28.772Z,5.50
2018-03-04T20:47:56.311Z,5.40
2018-03-04T20:50:23.811Z,5.50
2018-03-04T20:52:51.323Z,5.40
2018-03-04T20:55:22.668Z,5.50
2018-03-04T20:57:50.192Z,5.50
2018-03-04T21:00:17.835Z,5.50
2018-03-04T21:02:45.357Z,5.50
2018-03-04T21:05:12.883Z,5.50
2018-03-04T21:07:40.360Z,5.50
2018-03-04T21:10:07.918Z,5.60
2018-03-04T21:12:35.420Z,5.40
2018-03-04T21:15:02.911Z,5.50
2018-03-04T21:17:34.138Z,5.40
2018-03-04T21:20:02.225Z,5.50
2018-03-04T21:22:29.741Z,5.50
2018-03-04T21:24:57.227Z,5.40
2018-03-04T21:27:25.539Z,5.40
2018-03-04T21:29:53.097Z,5.50
2018-03-04T21:32:20.606Z,5.40
2018-03-04T21:34:48.166Z,5.40
2018-03-04T21:37:17.184Z,5.40
2018-03-04T21:39:45.483Z,5.30
2018-03-04T21:42:13.047Z,5.30
2018-03-04T21:44:41.270Z,5.30
2018-03-04T21:47:08.780Z,5.30
2018-03-04T21:49:36.276Z,5.20
2018-03-04T21:52:03.792Z,5.30
2018-03-04T21:54:31.282Z,5.30
2018-03-04T21:56:58.801Z,5.20
2018-03-04T21:59:26.307Z,5.20
2018-03-04T22:01:54.636Z,5.00
2018-03-04T22:04:22.147Z,5.10
2018-03-04T22:06:49.674Z,5.20
2018-03-04T22:09:17.164Z,5.20
2018-03-04T22:11:44.677Z,5.10
2018-03-04T22:14:12.195Z,5.10
2018-03-04T22:16:39.709Z,5.10
2018-03-04T22:19:07.234Z,5.10
2018-03-04T22:21:34.759Z,5.10
2018-03-04T22:24:02.263Z,5.00
2018-03-04T22:26:29.810Z,5.00
2018-03-04T22:28:57.309Z,5.10
2018-03-04T22:31:24.819Z,5.10
2018-03-04T22:33:52.326Z,5.10
2018-03-04T22:36:19.853Z,5.10
2018-03-04T22:38:47.331Z,5.20
2018-03-04T22:41:14.857Z,5.10
2018-03-04T22:43:42.363Z,5.20
2018-03-04T22:46:09.856Z,5.10
2018-03-04T22:48:37.383Z,5.20
2018-03-04T22:51:04.933Z,5.10
2018-03-04T22:53:32.439Z,5.10
2018-03-04T22:55:59.932Z,5.20
2018-03-04T22:58:27.416Z,5.30
2018-03-04T23:00:54.938Z,5.20
2018-03-04T23:03:22.422Z,5.30
2018-03-04T23:05:49.903Z,5.20
2018-03-04T23:08:17.436Z,5.20
2018-03-04T23:10:44.937Z,5.20
2018-03-04T23:13:13.240Z,5.10
2018-03-04T23:15:40.724Z,5.10
2018-03-04T23:18:08.970Z,5.00
2018-03-04T23:20:36.473Z,5.00
2018-03-04T23:23:03.941Z,5.00
2018-03-04T23:25:31.447Z,4.90
2018-03-04T23:27:58.933Z,4.90
2018-03-04T23:30:26.452Z,4.90
2018-03-04T23:32:53.959Z,4.90
2018-03-04T23:35:21.442Z,4.80
2018-03-04T23:37:49.720Z,4.80
2018-03-04T23:40:17.991Z,4.80
2018-03-04T23:42:46.239Z,4.80
2018-03-04T23:45:13.775Z,4.80
2018-03-04T23:47:41.268Z,4.90
2018-03-04T23:50:08.758Z,4.90
2018-03-04T23:52:36.287Z,5.00
2018-03-04T23:55:03.764Z,4.90
2018-03-04T23:57:32.035Z,5.00
